createdAt,value
2023-06-03T00:00:12.724Z,1461.00
2023-06-03T00:01:12.761Z,1448.00
2023-06-03T00:02:12.835Z,1453.00
2023-06-03T00:03:12.929Z,1463.00
2023-06-03T00:04:12.914Z,1456.00
2023-06-03T00:05:12.929Z,1447.00
2023-06-03T00:06:12.961Z,1459.00
2023-06-03T00:07:13.035Z,1452.00
2023-06-03T00:08:13.061Z,1439.00
2023-06-03T00:09:13.108Z,1459.00
2023-06-03T00:10:13.159Z,1443.00
2023-06-03T00:11:13.177Z,1443.00
2023-06-03T00:12:13.215Z,1445.00
2023-06-03T00:13:13.263Z,1442.00
2023-06-03T00:14:13.304Z,1433.00
2023-06-03T00:15:13.377Z,1442.00
2023-06-03T00:16:13.442Z,1438.00
2023-06-03T00:17:13.437Z,1444.00
2023-06-03T00:18:13.466Z,1443.00
2023-06-03T00:19:13.523Z,1435.00
2023-06-03T00:20:13.573Z,1440.00
2023-06-03T00:21:13.615Z,1426.00
2023-06-03T00:22:13.692Z,1427.00
2023-06-03T00:23:13.701Z,1431.00
2023-06-03T00:24:13.730Z,1428.00
2023-06-03T00:25:13.780Z,1421.00
2023-06-03T00:26:13.821Z,1420.00
2023-06-03T00:27:13.854Z,1416.00
2023-06-03T00:28:13.907Z,1416.00
2023-06-03T00:29:13.944Z,1424.00
2023-06-03T00:30:14.019Z,1412.00
2023-06-03T00:31:14.053Z,1411.00
2023-06-03T00:32:14.105Z,1400.00
2023-06-03T00:33:14.180Z,1398.00
2023-06-03T00:34:14.227Z,1402.00
2023-06-03T00:35:14.212Z,1397.00
2023-06-03T00:36:14.261Z,1405.00
2023-06-03T00:37:14.328Z,1397.00
2023-06-03T00:38:14.359Z,1399.00
2023-06-03T00:39:14.385Z,1392.00
2023-06-03T00:40:14.427Z,1402.00
2023-06-03T00:41:14.498Z,1392.00
2023-06-03T00:42:14.530Z,1383.00
2023-06-03T00:43:14.570Z,1384.00
2023-06-03T00:44:14.568Z,1380.00
2023-06-03T00:45:14.641Z,1399.00
2023-06-03T00:46:14.739Z,1384.00
2023-06-03T00:47:14.736Z,1384.00
2023-06-03T00:48:14.792Z,1375.00
2023-06-03T00:49:14.856Z,1379.00
2023-06-03T00:50:14.877Z,1363.00
2023-06-03T00:51:14.934Z,1370.00
2023-06-03T00:52:15.000Z,1364.00
2023-06-03T00:53:15.002Z,1369.00
2023-06-03T00:54:15.043Z,1371.00
2023-06-03T00:55:15.108Z,1364.00
2023-06-03T00:56:15.138Z,1368.00
2023-06-03T00:57:15.181Z,1369.00
2023-06-03T00:58:15.244Z,1370.00
2023-06-03T00:59:15.267Z,1363.00
2023-06-03T01:00:15.335Z,1362.00
2023-06-03T01:01:15.388Z,1368.00
2023-06-03T01:02:15.440Z,1367.00
2023-06-03T01:03:15.609Z,1368.00
2023-06-03T01:04:15.473Z,1357.00
2023-06-03T01:05:15.533Z,1352.00
2023-06-03T01:06:15.577Z,1360.00
2023-06-03T01:07:15.645Z,1353.00
2023-06-03T01:08:15.662Z,1354.00
2023-06-03T01:09:15.696Z,1357.00
2023-06-03T01:10:15.749Z,1364.00
2023-06-03T01:11:15.812Z,1353.00
2023-06-03T01:12:15.869Z,1356.00
2023-06-03T01:13:15.881Z,1352.00
2023-06-03T01:14:15.939Z,1356.00
2023-06-03T01:15:16.004Z,1347.00
2023-06-03T01:16:16.069Z,1349.00
2023-06-03T01:17:16.069Z,1350.00
2023-06-03T01:18:16.128Z,1341.00
2023-06-03T01:19:16.197Z,1348.00
2023-06-03T01:20:16.236Z,1346.00
2023-06-03T01:21:16.272Z,1345.00
2023-06-03T01:22:16.314Z,1342.00
2023-06-03T01:23:16.401Z,1348.00
2023-06-03T01:24:16.400Z,1347.00
2023-06-03T01:25:16.516Z,1349.00
2023-06-03T01:26:16.527Z,1333.00
2023-06-03T01:27:16.564Z,1338.00
2023-06-03T01:28:16.588Z,1340.00
2023-06-03T01:29:16.653Z,1337.00
2023-06-03T01:30:16.700Z,1355.00
2023-06-03T01:31:16.806Z,1337.00
2023-06-03T01:32:16.809Z,1340.00
2023-06-03T01:33:16.866Z,1343.00
2023-06-03T01:34:16.945Z,1346.00
2023-06-03T01:35:16.971Z,1334.00
2023-06-03T01:36:17.039Z,1340.00
2023-06-03T01:37:17.084Z,1335.00
2023-06-03T01:38:17.153Z,1328.00
2023-06-03T01:39:17.181Z,1332.00
2023-06-03T01:40:17.212Z,1324.00
2023-06-03T01:41:17.274Z,1317.00
2023-06-03T01:42:17.343Z,1326.00
2023-06-03T01:43:17.370Z,1329.00
2023-06-03T01:44:17.420Z,1328.00
2023-06-03T01:45:17.458Z,1326.00
2023-06-03T01:46:17.546Z,1316.00
2023-06-03T01:47:17.562Z,1330.00
2023-06-03T01:48:17.619Z,1321.00
2023-06-03T01:49:17.637Z,1321.00
2023-06-03T01:50:17.676Z,1313.00
2023-06-03T01:51:17.709Z,1317.00
2023-06-03T01:52:17.747Z,1326.00
2023-06-03T01:53:17.819Z,1314.00
2023-06-03T01:54:17.824Z,1320.00
2023-06-03T01:55:17.895Z,1311.00
2023-06-03T01:56:17.928Z,1312.00
2023-06-03T01:57:18.005Z,1325.00
2023-06-03T01:58:18.042Z,1309.00
2023-06-03T01:59:18.130Z,1322.00
2023-06-03T02:00:18.139Z,1315.00
2023-06-03T02:01:18.249Z,1320.00
2023-06-03T02:02:18.294Z,1317.00
2023-06-03T02:03:18.381Z,1309.00
2023-06-03T02:04:18.839Z,1312.00
2023-06-03T02:05:18.383Z,1314.00
2023-06-03T02:06:18.417Z,1310.00
2023-06-03T02:07:18.487Z,1306.00
2023-06-03T02:08:18.560Z,1297.00
2023-06-03T02:09:18.565Z,1310.00
2023-06-03T02:10:18.632Z,1293.00
2023-06-03T02:11:18.677Z,1306.00
2023-06-03T02:12:18.742Z,1303.00
2023-06-03T02:13:18.775Z,1297.00
2023-06-03T02:14:18.822Z,1296.00
2023-06-03T02:15:18.876Z,1290.00
2023-06-03T02:16:18.957Z,1298.00
2023-06-03T02:17:18.972Z,1305.00
2023-06-03T02:18:19.017Z,1292.00
2023-06-03T02:19:19.109Z,1295.00
2023-06-03T02:20:19.149Z,1291.00
2023-06-03T02:21:19.194Z,1284.00
2023-06-03T02:22:19.259Z,1291.00
2023-06-03T02:23:19.399Z,1291.00
2023-06-03T02:24:19.340Z,1294.00
2023-06-03T02:25:19.380Z,1292.00
2023-06-03T02:26:19.438Z,1280.00
2023-06-03T02:27:19.478Z,1281.00
2023-06-03T02:28:19.533Z,1286.00
2023-06-03T02:29:19.626Z,1276.00
2023-06-03T02:30:19.622Z,1279.00
2023-06-03T02:31:19.725Z,1270.00
2023-06-03T02:32:19.754Z,1271.00
2023-06-03T02:33:19.790Z,1278.00
2023-06-03T02:34:19.835Z,1281.00
2023-06-03T02:35:19.887Z,1283.00
2023-06-03T02:36:19.926Z,1276.00
2023-06-03T02:37:20.016Z,1281.00
2023-06-03T02:38:20.045Z,1280.00
2023-06-03T02:39:20.104Z,1269.00
2023-06-03T02:40:20.195Z,1286.00
2023-06-03T02:41:20.207Z,1275.00
2023-06-03T02:42:20.247Z,1281.00
2023-06-03T02:43:20.316Z,1272.00
2023-06-03T02:44:20.347Z,1269.00
2023-06-03T02:45:20.394Z,1274.00
2023-06-03T02:46:20.461Z,1280.00
2023-06-03T02:47:20.498Z,1276.00
2023-06-03T02:48:20.536Z,1272.00
2023-06-03T02:49:20.594Z,1275.00
2023-06-03T02:50:20.642Z,1267.00
2023-06-03T02:51:20.683Z,1257.00
2023-06-03T02:52:20.744Z,1257.00
2023-06-03T02:53:20.812Z,1258.00
2023-06-03T02:54:20.839Z,1260.00
2023-06-03T02:55:20.874Z,1263.00
2023-06-03T02:56:20.921Z,1262.00
2023-06-03T02:57:20.990Z,1261.00
2023-06-03T02:58:21.006Z,1258.00
2023-06-03T02:59:21.064Z,1258.00
2023-06-03T03:00:21.119Z,1250.00
2023-06-03T03:01:21.195Z,1255.00
2023-06-03T03:02:21.273Z,1258.00
2023-06-03T03:03:21.338Z,1255.00
2023-06-03T03:04:21.310Z,1245.00
2023-06-03T03:05:21.364Z,1250.00
2023-06-03T03:06:21.416Z,1253.00
2023-06-03T03:07:21.453Z,1241.00
2023-06-03T03:08:21.490Z,1227.00
2023-06-03T03:09:21.554Z,1252.00
2023-06-03T03:10:21.618Z,1249.00
2023-06-03T03:11:21.674Z,1234.00
2023-06-03T03:12:21.735Z,1241.00
2023-06-03T03:13:21.766Z,1248.00
2023-06-03T03:14:21.835Z,1234.00
2023-06-03T03:15:21.907Z,1234.00
2023-06-03T03:16:21.933Z,1246.00
2023-06-03T03:17:22.032Z,1239.00
2023-06-03T03:18:22.005Z,1242.00
2023-06-03T03:19:22.075Z,1233.00
2023-06-03T03:20:22.141Z,1231.00
2023-06-03T03:21:22.166Z,1232.00
2023-06-03T03:22:22.229Z,1232.00
2023-06-03T03:23:22.290Z,1240.00
2023-06-03T03:24:22.327Z,1239.00
2023-06-03T03:25:22.442Z,1233.00
2023-06-03T03:26:22.483Z,1236.00
2023-06-03T03:27:22.480Z,1224.00
2023-06-03T03:28:22.505Z,1227.00
2023-06-03T03:29:22.571Z,1232.00
2023-06-03T03:30:22.635Z,1225.00
2023-06-03T03:31:22.691Z,1230.00
2023-06-03T03:32:22.758Z,1229.00
2023-06-03T03:33:22.785Z,1232.00
2023-06-03T03:34:22.825Z,1229.00
2023-06-03T03:35:22.908Z,1218.00
2023-06-03T03:36:22.921Z,1220.00
2023-06-03T03:37:22.960Z,1223.00
2023-06-03T03:38:23.034Z,1221.00
2023-06-03T03:39:23.046Z,1224.00
2023-06-03T03:40:23.099Z,1213.00
2023-06-03T03:41:23.158Z,1213.00
2023-06-03T03:42:23.211Z,1222.00
2023-06-03T03:43:23.256Z,1199.00
2023-06-03T03:44:23.304Z,1221.00
2023-06-03T03:45:23.376Z,1214.00
2023-06-03T03:46:23.462Z,1216.00
2023-06-03T03:47:23.536Z,1218.00
2023-06-03T03:48:23.522Z,1213.00
2023-06-03T03:49:23.557Z,1215.00
2023-06-03T03:50:23.592Z,1210.00
2023-06-03T03:51:23.635Z,1201.00
2023-06-03T03:52:24.768Z,1210.00
2023-06-03T03:53:24.692Z,1212.00
2023-06-03T03:54:23.692Z,1213.00
2023-06-03T03:55:23.674Z,1212.00
2023-06-03T03:56:23.767Z,1213.00
2023-06-03T03:57:23.909Z,1211.00
2023-06-03T03:58:23.669Z,1216.00
2023-06-03T03:59:23.647Z,1206.00
2023-06-03T04:00:23.641Z,1198.00
2023-06-03T04:01:23.933Z,1207.00
2023-06-03T04:02:23.694Z,1200.00
2023-06-03T04:03:23.770Z,1206.00
2023-06-03T04:04:23.717Z,1194.00
2023-06-03T04:05:23.794Z,1200.00
2023-06-03T04:06:23.803Z,1193.00
2023-06-03T04:07:23.878Z,1200.00
2023-06-03T04:08:23.908Z,1200.00
2023-06-03T04:09:23.964Z,1196.00
2023-06-03T04:10:24.025Z,1200.00
2023-06-03T04:11:24.063Z,1192.00
2023-06-03T04:12:24.098Z,1190.00
2023-06-03T04:13:24.140Z,1193.00
2023-06-03T04:14:24.181Z,1192.00
2023-06-03T04:15:24.246Z,1185.00
2023-06-03T04:16:24.394Z,1188.00
2023-06-03T04:17:24.338Z,1180.00
2023-06-03T04:18:24.355Z,1187.00
2023-06-03T04:19:24.418Z,1194.00
2023-06-03T04:20:24.460Z,1175.00
2023-06-03T04:21:24.514Z,1191.00
2023-06-03T04:22:24.569Z,1179.00
2023-06-03T04:23:24.661Z,1176.00
2023-06-03T04:24:24.666Z,1185.00
2023-06-03T04:25:24.759Z,1172.00
2023-06-03T04:26:24.801Z,1186.00
2023-06-03T04:27:24.842Z,1183.00
2023-06-03T04:28:24.888Z,1180.00
2023-06-03T04:29:24.911Z,1172.00
2023-06-03T04:30:24.999Z,1173.00
2023-06-03T04:31:25.085Z,1170.00
2023-06-03T04:32:25.154Z,1179.00
2023-06-03T04:33:25.129Z,1178.00
2023-06-03T04:34:25.263Z,1175.00
2023-06-03T04:35:25.300Z,1173.00
2023-06-03T04:36:25.381Z,1156.00
2023-06-03T04:37:25.410Z,1176.00
2023-06-03T04:38:25.445Z,1165.00
2023-06-03T04:39:25.528Z,1160.00
2023-06-03T04:40:25.561Z,1173.00
2023-06-03T04:41:25.610Z,1169.00
2023-06-03T04:42:25.665Z,1179.00
2023-06-03T04:43:26.441Z,1164.00
2023-06-03T04:44:25.795Z,1169.00
2023-06-03T04:45:25.828Z,1171.00
2023-06-03T04:46:25.909Z,1162.00
2023-06-03T04:47:26.014Z,1153.00
2023-06-03T04:48:25.984Z,1150.00
2023-06-03T04:49:26.042Z,1163.00
2023-06-03T04:50:27.525Z,1165.00
2023-06-03T04:51:26.256Z,1166.00
2023-06-03T04:52:26.340Z,1151.00
2023-06-03T04:53:26.360Z,1159.00
2023-06-03T04:54:26.440Z,1150.00
2023-06-03T04:55:26.524Z,1150.00
2023-06-03T04:56:26.537Z,1149.00
2023-06-03T04:57:26.602Z,1139.00
2023-06-03T04:58:26.610Z,1156.00
2023-06-03T04:59:26.671Z,1159.00
2023-06-03T05:00:26.709Z,1141.00
2023-06-03T05:01:26.801Z,1133.00
2023-06-03T05:02:26.898Z,1141.00
2023-06-03T05:03:26.978Z,1138.00
2023-06-03T05:04:26.927Z,1137.00
2023-06-03T05:05:26.961Z,1136.00
2023-06-03T05:06:27.033Z,1141.00
2023-06-03T05:07:27.096Z,1136.00
2023-06-03T05:08:27.132Z,1146.00
2023-06-03T05:09:27.200Z,1136.00
2023-06-03T05:10:27.239Z,1135.00
2023-06-03T05:11:27.287Z,1135.00
2023-06-03T05:12:27.340Z,1135.00
2023-06-03T05:13:27.386Z,1135.00
2023-06-03T05:14:27.425Z,1134.00
2023-06-03T05:15:27.486Z,1140.00
2023-06-03T05:16:27.536Z,1137.00
2023-06-03T05:17:27.618Z,1138.00
2023-06-03T05:18:27.647Z,1126.00
2023-06-03T05:19:27.705Z,1142.00
2023-06-03T05:20:27.761Z,1141.00
2023-06-03T05:21:27.804Z,1117.00
2023-06-03T05:22:27.862Z,1132.00
2023-06-03T05:23:27.929Z,1139.00
2023-06-03T05:24:27.944Z,1129.00
2023-06-03T05:25:28.007Z,1138.00
2023-06-03T05:26:28.051Z,1138.00
2023-06-03T05:27:28.089Z,1128.00
2023-06-03T05:28:28.174Z,1124.00
2023-06-03T05:29:28.200Z,1132.00
2023-06-03T05:30:28.251Z,1133.00
2023-06-03T05:31:28.362Z,1126.00
2023-06-03T05:32:28.390Z,1124.00
2023-06-03T05:33:28.415Z,1120.00
2023-06-03T05:34:28.440Z,1129.00
2023-06-03T05:35:28.477Z,1125.00
2023-06-03T05:36:28.615Z,1128.00
2023-06-03T05:37:28.650Z,1130.00
2023-06-03T05:38:28.688Z,1136.00
2023-06-03T05:39:28.745Z,1127.00
2023-06-03T05:40:28.806Z,1121.00
2023-06-03T05:41:28.787Z,1113.00
2023-06-03T05:42:28.860Z,1115.00
2023-06-03T05:43:28.896Z,1114.00
2023-06-03T05:44:28.953Z,1111.00
2023-06-03T05:45:29.002Z,1110.00
2023-06-03T05:46:29.071Z,1122.00
2023-06-03T05:47:29.144Z,1118.00
2023-06-03T05:48:29.150Z,1118.00
2023-06-03T05:49:29.213Z,1111.00
2023-06-03T05:50:29.242Z,1113.00
2023-06-03T05:51:29.280Z,1116.00
2023-06-03T05:52:29.365Z,1102.00
2023-06-03T05:53:29.402Z,1109.00
2023-06-03T05:54:29.445Z,1104.00
2023-06-03T05:55:29.505Z,1101.00
2023-06-03T05:56:29.503Z,1094.00
2023-06-03T05:57:29.573Z,1095.00
2023-06-03T05:58:29.590Z,1100.00
2023-06-03T05:59:29.636Z,1095.00
2023-06-03T06:00:29.722Z,1096.00
2023-06-03T06:01:29.748Z,1085.00
2023-06-03T06:02:29.814Z,1100.00
2023-06-03T06:03:30.012Z,1093.00
2023-06-03T06:04:29.924Z,1085.00
2023-06-03T06:05:29.914Z,1098.00
2023-06-03T06:06:29.983Z,1102.00
2023-06-03T06:07:30.004Z,1090.00
2023-06-03T06:08:30.054Z,1079.00
2023-06-03T06:09:30.087Z,1096.00
2023-06-03T06:10:30.125Z,1087.00
2023-06-03T06:11:30.190Z,1097.00
2023-06-03T06:12:30.243Z,1087.00
2023-06-03T06:13:30.276Z,1080.00
2023-06-03T06:14:30.308Z,1081.00
2023-06-03T06:15:30.440Z,1068.00
2023-06-03T06:16:30.449Z,1073.00
2023-06-03T06:17:30.501Z,1070.00
2023-06-03T06:18:30.524Z,1066.00
2023-06-03T06:19:30.537Z,1068.00
2023-06-03T06:20:30.579Z,1068.00
2023-06-03T06:21:30.620Z,1067.00
2023-06-03T06:22:30.658Z,1074.00
2023-06-03T06:23:30.817Z,1067.00
2023-06-03T06:24:30.772Z,1073.00
2023-06-03T06:25:30.862Z,1072.00
2023-06-03T06:26:30.870Z,1066.00
2023-06-03T06:27:30.937Z,1052.00
2023-06-03T06:28:30.974Z,1067.00
2023-06-03T06:29:31.010Z,1050.00
2023-06-03T06:30:31.053Z,1057.00
2023-06-03T06:31:31.153Z,1048.00
2023-06-03T06:32:31.185Z,1061.00
2023-06-03T06:33:31.219Z,1059.00
2023-06-03T06:34:31.255Z,1051.00
2023-06-03T06:35:31.302Z,1044.00
2023-06-03T06:36:31.358Z,1060.00
2023-06-03T06:37:31.424Z,1054.00
2023-06-03T06:38:31.479Z,1050.00
2023-06-03T06:39:31.523Z,1060.00
2023-06-03T06:40:31.564Z,1053.00
2023-06-03T06:41:31.614Z,1056.00
2023-06-03T06:42:31.665Z,1045.00
2023-06-03T06:43:31.748Z,1040.00
2023-06-03T06:44:31.785Z,1042.00
2023-06-03T06:45:31.967Z,1037.00
2023-06-03T06:46:31.945Z,1047.00
2023-06-03T06:47:31.964Z,1045.00
2023-06-03T06:48:31.962Z,1040.00
2023-06-03T06:49:32.023Z,1048.00
2023-06-03T06:50:32.087Z,1048.00
2023-06-03T06:51:32.093Z,1041.00
2023-06-03T06:52:32.144Z,1041.00
2023-06-03T06:53:32.190Z,1043.00
2023-06-03T06:54:32.237Z,1046.00
2023-06-03T06:55:32.281Z,1040.00
2023-06-03T06:56:32.323Z,1040.00
2023-06-03T06:57:32.369Z,1049.00
2023-06-03T06:58:32.409Z,1030.00
2023-06-03T06:59:32.446Z,1026.00
2023-06-03T07:00:32.484Z,1036.00
2023-06-03T07:01:32.597Z,1042.00
2023-06-03T07:02:32.621Z,1037.00
2023-06-03T07:03:32.662Z,1035.00
2023-06-03T07:04:32.688Z,1024.00
2023-06-03T07:05:32.698Z,1039.00
2023-06-03T07:06:32.738Z,1040.00
2023-06-03T07:07:32.825Z,1034.00
2023-06-03T07:08:32.831Z,1029.00
2023-06-03T07:09:32.877Z,1042.00
2023-06-03T07:10:32.920Z,1027.00
2023-06-03T07:11:32.948Z,1030.00
2023-06-03T07:12:32.969Z,1020.00
2023-06-03T07:13:33.042Z,1025.00
2023-06-03T07:14:33.047Z,1039.00
2023-06-03T07:15:33.088Z,1020.00
2023-06-03T07:16:33.177Z,1024.00
2023-06-03T07:17:33.255Z,1019.00
2023-06-03T07:18:33.231Z,1024.00
2023-06-03T07:19:33.256Z,1020.00
2023-06-03T07:20:33.296Z,1021.00
2023-06-03T07:21:33.337Z,1028.00
2023-06-03T07:22:33.371Z,1027.00
2023-06-03T07:23:33.472Z,1032.00
2023-06-03T07:24:36.032Z,1019.00
2023-06-03T07:25:33.474Z,1016.00
2023-06-03T07:26:33.509Z,1023.00
2023-06-03T07:27:33.438Z,1026.00
2023-06-03T07:28:33.424Z,1021.00
2023-06-03T07:29:33.412Z,1024.00
2023-06-03T07:30:33.415Z,1021.00
2023-06-03T07:31:33.413Z,1012.00
2023-06-03T07:32:33.409Z,1026.00
2023-06-03T07:33:33.405Z,1014.00
2023-06-03T07:34:33.385Z,1002.00
2023-06-03T07:35:33.394Z,1013.00
2023-06-03T07:36:33.367Z,1011.00
2023-06-03T07:37:33.381Z,1018.00
2023-06-03T07:38:33.357Z,1016.00
2023-06-03T07:39:33.367Z,1017.00
2023-06-03T07:40:33.358Z,1001.00
2023-06-03T07:41:33.356Z,1011.00
2023-06-03T07:42:33.353Z,1010.00
2023-06-03T07:43:33.335Z,1005.00
2023-06-03T07:44:33.328Z,1014.00
2023-06-03T07:45:33.321Z,1015.00
2023-06-03T07:46:33.389Z,1004.00
2023-06-03T07:47:33.346Z,998.00
2023-06-03T07:48:33.308Z,1007.00
2023-06-03T07:49:33.289Z,994.00
2023-06-03T07:50:33.322Z,1001.00
2023-06-03T07:51:33.281Z,997.00
2023-06-03T07:52:33.289Z,993.00
2023-06-03T07:53:34.597Z,1002.00
2023-06-03T07:54:33.277Z,1015.00
2023-06-03T07:55:33.260Z,1004.00
2023-06-03T07:56:33.252Z,998.00
2023-06-03T07:57:33.244Z,994.00
2023-06-03T07:58:33.252Z,998.00
2023-06-03T07:59:33.231Z,996.00
2023-06-03T08:00:33.226Z,989.00
2023-06-03T08:01:33.216Z,999.00
2023-06-03T08:02:33.294Z,987.00
2023-06-03T08:03:33.274Z,991.00
2023-06-03T08:04:33.235Z,990.00
2023-06-03T08:05:33.192Z,992.00
2023-06-03T08:06:33.251Z,988.00
2023-06-03T08:07:33.214Z,994.00
2023-06-03T08:08:33.189Z,994.00
2023-06-03T08:09:33.173Z,986.00
2023-06-03T08:10:33.183Z,986.00
2023-06-03T08:11:33.178Z,988.00
2023-06-03T08:12:33.158Z,987.00
2023-06-03T08:13:33.177Z,989.00
2023-06-03T08:14:33.146Z,985.00
2023-06-03T08:15:33.145Z,983.00
2023-06-03T08:16:33.179Z,988.00
2023-06-03T08:17:33.164Z,992.00
2023-06-03T08:18:33.118Z,993.00
2023-06-03T08:19:33.117Z,981.00
2023-06-03T08:20:33.115Z,986.00
2023-06-03T08:21:33.134Z,990.00
2023-06-03T08:22:33.150Z,987.00
2023-06-03T08:23:33.236Z,981.00
2023-06-03T08:24:33.200Z,988.00
2023-06-03T08:25:33.255Z,979.00
2023-06-03T08:26:33.256Z,975.00
2023-06-03T08:27:33.298Z,979.00
2023-06-03T08:28:33.329Z,983.00
2023-06-03T08:29:33.383Z,988.00
2023-06-03T08:30:33.397Z,970.00
2023-06-03T08:31:33.495Z,982.00
2023-06-03T08:32:33.564Z,965.00
2023-06-03T08:33:33.530Z,974.00
2023-06-03T08:34:33.534Z,981.00
2023-06-03T08:35:33.562Z,982.00
2023-06-03T08:36:33.642Z,970.00
2023-06-03T08:37:33.651Z,973.00
2023-06-03T08:38:33.684Z,969.00
2023-06-03T08:39:33.718Z,976.00
2023-06-03T08:40:33.765Z,963.00
2023-06-03T08:41:33.789Z,971.00
2023-06-03T08:42:33.832Z,965.00
2023-06-03T08:43:33.863Z,968.00
2023-06-03T08:44:33.915Z,963.00
2023-06-03T08:45:33.995Z,970.00
2023-06-03T08:46:34.044Z,975.00
2023-06-03T08:47:34.083Z,969.00
2023-06-03T08:48:34.055Z,972.00
2023-06-03T08:49:34.080Z,973.00
2023-06-03T08:50:34.109Z,965.00
2023-06-03T08:51:34.156Z,964.00
2023-06-03T08:52:34.249Z,960.00
2023-06-03T08:53:34.237Z,959.00
2023-06-03T08:54:34.247Z,950.00
2023-06-03T08:55:34.266Z,943.00
2023-06-03T08:56:34.316Z,957.00
2023-06-03T08:57:34.334Z,954.00
2023-06-03T08:58:34.377Z,965.00
2023-06-03T08:59:34.373Z,953.00
2023-06-03T09:00:34.415Z,951.00
2023-06-03T09:01:34.467Z,954.00
2023-06-03T09:02:34.493Z,954.00
2023-06-03T09:03:34.622Z,957.00
2023-06-03T09:04:34.555Z,944.00
2023-06-03T09:05:34.637Z,946.00
2023-06-03T09:06:34.596Z,963.00
2023-06-03T09:07:34.639Z,950.00
2023-06-03T09:08:34.723Z,937.00
2023-06-03T09:09:34.683Z,941.00
2023-06-03T09:10:34.765Z,947.00
2023-06-03T09:11:34.866Z,945.00
2023-06-03T09:12:34.800Z,960.00
2023-06-03T09:13:34.795Z,952.00
2023-06-03T09:14:34.830Z,954.00
2023-06-03T09:15:34.887Z,939.00
2023-06-03T09:16:35.027Z,953.00
2023-06-03T09:17:34.959Z,942.00
2023-06-03T09:18:34.950Z,943.00
2023-06-03T09:19:34.984Z,961.00
2023-06-03T09:20:35.019Z,942.00
2023-06-03T09:21:35.081Z,942.00
2023-06-03T09:22:35.099Z,942.00
2023-06-03T09:23:35.189Z,949.00
2023-06-03T09:24:35.178Z,935.00
2023-06-03T09:25:35.208Z,929.00
2023-06-03T09:26:35.237Z,949.00
2023-06-03T09:27:35.285Z,957.00
2023-06-03T09:28:35.322Z,950.00
2023-06-03T09:29:35.365Z,938.00
2023-06-03T09:30:35.394Z,937.00
2023-06-03T09:31:35.409Z,948.00
2023-06-03T09:32:35.445Z,935.00
2023-06-03T09:33:35.411Z,948.00
2023-06-03T09:34:35.494Z,935.00
2023-06-03T09:35:35.508Z,933.00
2023-06-03T09:36:35.508Z,946.00
2023-06-03T09:37:35.574Z,943.00
2023-06-03T09:38:35.635Z,929.00
2023-06-03T09:39:35.607Z,943.00
2023-06-03T09:40:35.636Z,930.00
2023-06-03T09:41:35.646Z,924.00
2023-06-03T09:42:36.084Z,931.00
2023-06-03T09:43:35.728Z,943.00
2023-06-03T09:44:35.747Z,931.00
2023-06-03T09:45:35.770Z,913.00
2023-06-03T09:46:35.812Z,939.00
2023-06-03T09:47:35.870Z,926.00
2023-06-03T09:48:35.860Z,922.00
2023-06-03T09:49:49.914Z,917.00
2023-06-03T09:50:36.886Z,918.00
2023-06-03T09:51:35.866Z,921.00
2023-06-03T09:52:35.877Z,923.00
2023-06-03T09:53:35.853Z,927.00
2023-06-03T09:54:35.848Z,939.00
2023-06-03T09:55:35.903Z,927.00
2023-06-03T09:56:35.836Z,932.00
2023-06-03T09:57:35.846Z,942.00
2023-06-03T09:58:35.824Z,922.00
2023-06-03T09:59:35.820Z,925.00
2023-06-03T10:00:35.806Z,914.00
2023-06-03T10:01:35.820Z,900.00
2023-06-03T10:02:35.830Z,907.00
2023-06-03T10:03:35.785Z,904.00
2023-06-03T10:04:35.786Z,896.00
2023-06-03T10:05:35.800Z,903.00
2023-06-03T10:06:35.806Z,907.00
2023-06-03T10:07:35.843Z,916.00
2023-06-03T10:08:35.862Z,901.00
2023-06-03T10:09:35.876Z,906.00
2023-06-03T10:10:35.903Z,906.00
2023-06-03T10:11:35.929Z,918.00
2023-06-03T10:12:35.941Z,911.00
2023-06-03T10:13:35.972Z,918.00
2023-06-03T10:14:36.031Z,918.00
2023-06-03T10:15:36.021Z,917.00
2023-06-03T10:16:36.076Z,915.00
2023-06-03T10:17:37.403Z,915.00
2023-06-03T10:18:36.082Z,910.00
2023-06-03T10:19:36.116Z,905.00
2023-06-03T10:20:36.160Z,898.00
2023-06-03T10:21:36.146Z,903.00
2023-06-03T10:22:36.164Z,917.00
2023-06-03T10:23:36.253Z,912.00
2023-06-03T10:24:36.213Z,893.00
2023-06-03T10:25:36.238Z,896.00
2023-06-03T10:26:36.292Z,891.00
2023-06-03T10:27:36.374Z,898.00
2023-06-03T10:28:36.314Z,883.00
2023-06-03T10:29:36.349Z,889.00
2023-06-03T10:30:36.413Z,891.00
2023-06-03T10:31:36.391Z,895.00
2023-06-03T10:32:36.449Z,897.00
2023-06-03T10:33:36.439Z,884.00
2023-06-03T10:34:36.449Z,876.00
2023-06-03T10:35:36.477Z,872.00
2023-06-03T10:36:36.486Z,877.00
2023-06-03T10:37:36.530Z,880.00
2023-06-03T10:38:36.535Z,892.00
2023-06-03T10:39:36.574Z,892.00
2023-06-03T10:40:36.601Z,887.00
2023-06-03T10:41:36.630Z,893.00
2023-06-03T10:42:36.643Z,892.00
2023-06-03T10:43:36.687Z,882.00
2023-06-03T10:44:36.708Z,891.00
2023-06-03T10:45:36.742Z,881.00
2023-06-03T10:46:36.806Z,895.00
2023-06-03T10:47:36.844Z,880.00
2023-06-03T10:48:36.847Z,878.00
2023-06-03T10:49:36.848Z,875.00
2023-06-03T10:50:36.856Z,882.00
2023-06-03T10:51:36.927Z,884.00
2023-06-03T10:52:36.930Z,881.00
2023-06-03T10:53:36.943Z,878.00
2023-06-03T10:54:36.968Z,878.00
2023-06-03T10:55:37.045Z,872.00
2023-06-03T10:56:37.003Z,883.00
2023-06-03T10:57:37.059Z,891.00
2023-06-03T10:58:37.064Z,882.00
2023-06-03T10:59:37.086Z,877.00
2023-06-03T11:00:37.096Z,881.00
2023-06-03T11:01:37.164Z,880.00
2023-06-03T11:02:37.193Z,876.00
2023-06-03T11:03:37.274Z,882.00
2023-06-03T11:04:37.189Z,867.00
2023-06-03T11:05:37.229Z,884.00
2023-06-03T11:06:37.225Z,883.00
2023-06-03T11:07:37.249Z,870.00
2023-06-03T11:08:37.302Z,890.00
2023-06-03T11:09:37.293Z,882.00
2023-06-03T11:10:37.327Z,876.00
2023-06-03T11:11:37.338Z,860.00
2023-06-03T11:12:37.369Z,876.00
2023-06-03T11:13:37.401Z,868.00
2023-06-03T11:14:37.437Z,879.00
2023-06-03T11:15:37.438Z,864.00
2023-06-03T11:16:37.525Z,873.00
2023-06-03T11:17:37.523Z,865.00
2023-06-03T11:18:37.521Z,889.00
2023-06-03T11:19:37.534Z,874.00
2023-06-03T11:20:37.559Z,879.00
2023-06-03T11:21:37.588Z,874.00
2023-06-03T11:22:37.636Z,886.00
2023-06-03T11:23:37.716Z,877.00
2023-06-03T11:24:37.664Z,879.00
2023-06-03T11:25:37.710Z,879.00
2023-06-03T11:26:37.702Z,888.00
2023-06-03T11:27:37.735Z,877.00
2023-06-03T11:28:38.174Z,868.00
2023-06-03T11:29:37.761Z,870.00
2023-06-03T11:30:37.771Z,879.00
2023-06-03T11:31:37.832Z,871.00
2023-06-03T11:32:37.926Z,883.00
2023-06-03T11:33:37.916Z,868.00
2023-06-03T11:34:37.889Z,881.00
2023-06-03T11:35:37.928Z,878.00
2023-06-03T11:36:37.939Z,879.00
2023-06-03T11:37:37.985Z,876.00
2023-06-03T11:38:37.994Z,858.00
2023-06-03T11:39:37.995Z,868.00
2023-06-03T11:40:38.025Z,862.00
2023-06-03T11:41:38.040Z,857.00
2023-06-03T11:42:38.069Z,869.00
2023-06-03T11:43:38.107Z,868.00
2023-06-03T11:44:38.107Z,870.00
2023-06-03T11:45:38.147Z,876.00
2023-06-03T11:46:38.172Z,864.00
2023-06-03T11:47:38.306Z,883.00
2023-06-03T11:48:38.253Z,882.00
2023-06-03T11:49:38.257Z,862.00
2023-06-03T11:50:38.276Z,867.00
2023-06-03T11:51:38.332Z,875.00
2023-06-03T11:52:38.348Z,858.00
2023-06-03T11:53:38.384Z,872.00
2023-06-03T11:54:38.420Z,879.00
2023-06-03T11:55:38.424Z,868.00
2023-06-03T11:56:38.465Z,862.00
2023-06-03T11:57:38.494Z,853.00
2023-06-03T11:58:38.501Z,843.00
2023-06-03T11:59:38.537Z,869.00
2023-06-03T12:00:38.597Z,859.00
2023-06-03T12:01:38.590Z,855.00
2023-06-03T12:02:39.253Z,861.00
2023-06-03T12:03:38.736Z,865.00
2023-06-03T12:04:38.685Z,869.00
2023-06-03T12:05:38.714Z,859.00
2023-06-03T12:06:38.723Z,862.00
2023-06-03T12:07:38.754Z,864.00
2023-06-03T12:08:38.770Z,872.00
2023-06-03T12:09:38.789Z,858.00
2023-06-03T12:10:38.806Z,872.00
2023-06-03T12:11:38.920Z,864.00
2023-06-03T12:12:38.865Z,868.00
2023-06-03T12:13:38.886Z,854.00